Bridgeport, California
Current Conditions -  °F | °C
As of 3:52 AM on Wednesday 26 Nov 2014 (Local Time) from KBAN Reporting Station
Clear Clear  
Wind Chill: 23°   Ceiling: Unl
Heat Index: 23°   Visibility: NA
Dew Point: 17°   Wind: 0mph
Humidity: 78%   Direction: NA
Pressure: 30.51"   Gusts: NA
Location:  38.26°N, 119.23°W
Report Text: KBAN 261152Z AUTO 00000KT CLR M05/M08 A3051 RMK AO2 SLP315 T10501083 10000 21056 58006 FZRANO $
Loading
Personal Weather Stations






























Interactive Weather Map New forecast layout! Learn more

10-Day Weather Forecast

Advertisements
Track Severe Weather on mobile